createdAt,value
2023-01-04T00:02:04.108Z,24.25
2023-01-04T00:04:32.335Z,22.83
2023-01-04T00:07:00.483Z,23.63
2023-01-04T00:09:28.612Z,22.38
2023-01-04T00:11:56.725Z,22.35
2023-01-04T00:14:24.793Z,24.20
2023-01-04T00:16:52.921Z,23.00
2023-01-04T00:19:22.432Z,22.80
2023-01-04T00:21:50.575Z,22.15
2023-01-04T00:24:18.790Z,21.27
2023-01-04T00:26:46.999Z,22.88
2023-01-04T00:29:15.121Z,21.27
2023-01-04T00:31:44.707Z,22.58
2023-01-04T00:34:14.886Z,21.48
2023-01-04T00:36:44.682Z,22.75
2023-01-04T00:39:15.270Z,21.33
2023-01-04T00:42:00.956Z,21.25
2023-01-04T00:44:29.650Z,22.02
2023-01-04T00:46:57.779Z,22.50
2023-01-04T00:49:25.977Z,20.95
2023-01-04T00:51:55.419Z,22.27
2023-01-04T00:54:23.551Z,21.15
2023-01-04T00:56:52.439Z,21.15
2023-01-04T00:59:21.334Z,22.00
2023-01-04T01:01:49.620Z,21.85
2023-01-04T01:04:18.855Z,20.17
2023-01-04T01:06:47.139Z,20.17
2023-01-04T01:09:16.758Z,20.25
2023-01-04T01:11:45.110Z,21.05
2023-01-04T01:14:15.442Z,20.10
2023-01-04T01:16:59.086Z,21.67
2023-01-04T01:19:27.939Z,20.30
2023-01-04T01:21:57.264Z,20.52
2023-01-04T01:24:27.204Z,21.08
2023-01-04T01:26:55.962Z,19.90
2023-01-04T01:29:24.095Z,19.40
2023-01-04T01:31:52.354Z,20.23
2023-01-04T01:34:20.659Z,19.15
2023-01-04T01:36:48.859Z,20.88
2023-01-04T01:39:16.987Z,20.63
2023-01-04T01:41:46.440Z,19.63
2023-01-04T01:44:51.801Z,18.40
2023-01-04T01:47:20.656Z,19.77
2023-01-04T01:49:49.485Z,20.33
2023-01-04T01:52:23.002Z,18.65
2023-01-04T01:54:53.111Z,17.85
2023-01-04T01:57:24.080Z,32.15
2023-01-04T01:59:52.913Z,18.00
2023-01-04T02:02:21.311Z,19.02
2023-01-04T02:04:50.569Z,18.77
2023-01-04T02:07:21.437Z,20.33
2023-01-04T02:09:49.586Z,17.98
2023-01-04T02:12:17.660Z,18.40
2023-01-04T02:14:47.918Z,17.05
2023-01-04T02:17:17.735Z,18.65
2023-01-04T02:20:04.943Z,17.30
2023-01-04T02:23:09.506Z,18.63
2023-01-04T02:26:13.590Z,18.98
2023-01-04T02:28:59.582Z,18.75
2023-01-04T02:31:31.595Z,19.88
2023-01-04T02:34:02.577Z,18.48
2023-01-04T02:36:35.028Z,17.63
2023-01-04T02:39:11.975Z,18.73
2023-01-04T02:41:42.785Z,18.17
2023-01-04T02:44:32.089Z,18.40
2023-01-04T02:47:03.082Z,18.48
2023-01-04T02:49:48.596Z,19.65
2023-01-04T02:52:16.766Z,16.88
2023-01-04T02:54:44.949Z,17.38
2023-01-04T02:57:25.831Z,17.00
2023-01-04T03:00:24.914Z,16.75
2023-01-04T03:03:30.105Z,18.38
2023-01-04T03:06:18.532Z,16.33
2023-01-04T03:08:55.778Z,17.58
2023-01-04T03:11:41.068Z,18.65
2023-01-04T03:14:32.270Z,16.70
2023-01-04T03:17:00.138Z,17.35
2023-01-04T03:19:43.579Z,16.33
2023-01-04T03:22:31.988Z,18.90
2023-01-04T03:25:19.661Z,17.13
2023-01-04T03:28:05.643Z,16.35
2023-01-04T03:30:51.459Z,17.63
2023-01-04T03:33:36.698Z,16.13
2023-01-04T03:36:10.276Z,16.30
2023-01-04T03:38:58.334Z,18.25
2023-01-04T03:41:45.099Z,16.35
2023-01-04T03:44:37.860Z,17.13
2023-01-04T03:47:24.861Z,17.30
2023-01-04T03:49:57.576Z,15.38
2023-01-04T03:52:27.590Z,16.50
2023-01-04T03:54:55.802Z,16.35
2023-01-04T03:57:23.961Z,15.63
2023-01-04T03:59:54.648Z,17.08
2023-01-04T04:02:24.643Z,15.43
2023-01-04T04:05:10.113Z,15.43
2023-01-04T04:07:57.193Z,16.35
2023-01-04T04:10:25.328Z,15.57
2023-01-04T04:12:53.401Z,15.40
2023-01-04T04:15:21.508Z,15.52
2023-01-04T04:17:49.574Z,15.55
2023-01-04T04:20:17.811Z,17.08
2023-01-04T04:22:47.283Z,16.10
2023-01-04T04:25:15.448Z,15.68
2023-01-04T04:27:43.539Z,15.05
2023-01-04T04:30:11.980Z,14.32
2023-01-04T04:32:40.115Z,15.23
2023-01-04T04:35:08.920Z,15.20
2023-01-04T04:37:37.380Z,16.95
2023-01-04T04:40:08.172Z,15.88
2023-01-04T04:42:35.322Z,15.30
2023-01-04T04:45:03.397Z,14.73
2023-01-04T04:47:31.572Z,14.00
2023-01-04T04:49:59.621Z,16.05
2023-01-04T04:52:27.834Z,15.13
2023-01-04T04:54:56.034Z,13.85
2023-01-04T04:57:25.587Z,17.13
2023-01-04T04:59:53.767Z,14.60
2023-01-04T05:02:22.143Z,14.18
2023-01-04T05:04:50.459Z,13.85
2023-01-04T05:07:18.562Z,14.98
2023-01-04T05:09:46.571Z,13.88
2023-01-04T05:12:32.087Z,14.55
2023-01-04T05:15:01.600Z,14.55
2023-01-04T05:17:29.748Z,13.88
2023-01-04T05:19:57.855Z,15.32
2023-01-04T05:22:25.991Z,14.48
2023-01-04T05:24:54.151Z,14.55
2023-01-04T05:27:22.272Z,15.32
2023-01-04T05:30:07.477Z,13.88
2023-01-04T05:32:37.111Z,15.05
2023-01-04T05:35:05.616Z,13.85
2023-01-04T05:37:33.670Z,14.02
2023-01-04T05:40:01.856Z,13.65
2023-01-04T05:42:29.955Z,13.13
2023-01-04T05:44:59.114Z,12.35
2023-01-04T05:47:27.208Z,13.20
2023-01-04T05:49:56.856Z,13.38
2023-01-04T05:52:25.029Z,12.05
2023-01-04T05:54:53.175Z,13.65
2023-01-04T05:57:21.347Z,12.98
2023-01-04T05:59:49.444Z,14.00
2023-01-04T06:02:18.475Z,12.52
2023-01-04T06:04:46.954Z,15.55
2023-01-04T06:07:18.122Z,14.63
2023-01-04T06:09:46.976Z,13.73
2023-01-04T06:12:15.223Z,12.18
2023-01-04T06:14:43.362Z,12.55
2023-01-04T06:17:11.546Z,13.32
2023-01-04T06:19:39.818Z,12.38
2023-01-04T06:22:08.038Z,12.57
2023-01-04T06:24:37.569Z,12.80
2023-01-04T06:27:05.623Z,13.90
2023-01-04T06:29:33.752Z,12.90
2023-01-04T06:32:02.013Z,12.65
2023-01-04T06:34:31.469Z,13.93
2023-01-04T06:36:59.801Z,16.30
2023-01-04T06:39:27.965Z,15.82
2023-01-04T06:42:05.425Z,16.05
2023-01-04T06:44:34.718Z,24.48
2023-01-04T06:47:02.871Z,32.95
2023-01-04T06:49:31.043Z,50.92
2023-01-04T06:51:59.123Z,63.78
2023-01-04T06:54:27.273Z,52.10
2023-01-04T06:56:55.308Z,58.33
2023-01-04T06:59:24.853Z,57.15
2023-01-04T07:01:53.026Z,56.00
2023-01-04T07:04:21.428Z,55.35
2023-01-04T07:06:49.890Z,60.72
2023-01-04T07:09:18.130Z,62.92
2023-01-04T07:11:46.247Z,60.65
2023-01-04T07:14:14.352Z,60.20
2023-01-04T07:16:43.883Z,56.08
2023-01-04T07:19:12.015Z,60.65
2023-01-04T07:21:40.142Z,61.67
2023-01-04T07:24:09.159Z,64.43
2023-01-04T07:26:37.731Z,62.15
2023-01-04T07:29:18.052Z,64.43
2023-01-04T07:31:48.682Z,64.45
2023-01-04T07:34:17.125Z,67.22
2023-01-04T07:36:45.298Z,63.50
2023-01-04T07:39:13.532Z,64.07
2023-01-04T07:41:41.822Z,65.63
2023-01-04T07:44:11.078Z,63.90
2023-01-04T07:46:39.337Z,62.47
2023-01-04T07:49:16.714Z,62.83
2023-01-04T07:51:46.139Z,58.55
2023-01-04T07:54:14.551Z,62.10
2023-01-04T07:56:42.860Z,63.67
2023-01-04T07:59:11.305Z,61.17
2023-01-04T08:01:39.588Z,63.05
2023-01-04T08:04:10.079Z,60.70
2023-01-04T08:06:38.588Z,59.75
2023-01-04T08:09:06.896Z,65.50
2023-01-04T08:11:35.297Z,57.53
2023-01-04T08:14:03.507Z,60.45
2023-01-04T08:16:32.898Z,61.03
2023-01-04T08:19:02.103Z,57.65
2023-01-04T08:21:32.211Z,56.13
2023-01-04T08:24:00.642Z,58.65
2023-01-04T08:26:28.769Z,55.65
2023-01-04T08:28:57.653Z,56.38
2023-01-04T08:31:27.155Z,56.20
2023-01-04T08:33:55.966Z,52.55
2023-01-04T08:36:27.605Z,53.13
2023-01-04T08:39:01.396Z,50.88
2023-01-04T08:41:56.626Z,53.47
2023-01-04T08:44:19.113Z,52.80
2023-01-04T08:46:47.347Z,50.35
2023-01-04T08:49:15.660Z,52.95
2023-01-04T08:51:43.814Z,51.67
2023-01-04T08:54:14.095Z,53.10
2023-01-04T08:56:42.383Z,50.38
2023-01-04T08:59:11.299Z,53.33
2023-01-04T09:01:39.953Z,53.97
2023-01-04T09:04:08.517Z,60.25
2023-01-04T09:06:37.394Z,57.42
2023-01-04T09:09:05.655Z,54.38
2023-01-04T09:11:35.419Z,57.35
2023-01-04T09:14:08.214Z,67.85
2023-01-04T09:16:37.531Z,73.47
2023-01-04T09:19:05.918Z,72.10
2023-01-04T09:21:34.200Z,81.60
2023-01-04T09:24:02.438Z,82.45
2023-01-04T09:26:30.806Z,102.07
2023-01-04T09:29:00.495Z,115.65
2023-01-04T09:31:29.411Z,108.50
2023-01-04T09:34:15.462Z,112.93
2023-01-04T09:36:44.513Z,106.95
2023-01-04T09:39:21.036Z,105.03
2023-01-04T09:41:54.269Z,102.53
2023-01-04T09:45:21.870Z,98.22
2023-01-04T09:47:37.113Z,112.45
2023-01-04T09:50:07.780Z,125.63
2023-01-04T09:52:42.256Z,120.80
2023-01-04T09:55:38.359Z,121.05
2023-01-04T09:58:01.466Z,120.00
2023-01-04T10:00:32.876Z,119.30
2023-01-04T10:03:05.243Z,111.85
2023-01-04T10:05:34.158Z,118.03
2023-01-04T10:08:02.900Z,118.07
2023-01-04T10:10:43.644Z,114.30
2023-01-04T10:13:15.098Z,113.18
2023-01-04T10:15:46.384Z,112.13
2023-01-04T10:21:35.195Z,110.95
2023-01-04T10:24:11.137Z,108.40
2023-01-04T10:26:41.129Z,103.65
2023-01-04T10:29:27.102Z,102.72
2023-01-04T10:31:58.326Z,94.82
2023-01-04T10:34:27.474Z,103.28
2023-01-04T10:36:58.998Z,93.22
2023-01-04T10:39:32.832Z,93.00
2023-01-04T10:42:02.080Z,93.93
2023-01-04T10:44:34.823Z,88.35
2023-01-04T10:47:08.509Z,82.90
2023-01-04T10:49:41.771Z,93.05
2023-01-04T10:52:12.666Z,84.78
2023-01-04T10:54:42.367Z,79.43
2023-01-04T10:57:12.440Z,83.05
2023-01-04T10:59:43.550Z,93.45
2023-01-04T11:02:17.397Z,74.90
2023-01-04T11:04:48.098Z,82.00
2023-01-04T11:07:18.012Z,91.68
2023-01-04T11:09:47.397Z,75.25
2023-01-04T11:12:16.585Z,81.07
2023-01-04T11:14:44.676Z,82.57
2023-01-04T11:17:14.155Z,80.95
2023-01-04T11:19:42.371Z,89.40
2023-01-04T11:22:13.911Z,85.72
2023-01-04T11:25:00.463Z,86.90
2023-01-04T11:27:31.276Z,82.88
2023-01-04T11:30:01.428Z,88.35
2023-01-04T11:32:35.588Z,87.10
2023-01-04T11:35:03.746Z,82.97
2023-01-04T11:37:34.746Z,79.53
2023-01-04T11:40:24.053Z,87.03
2023-01-04T11:42:53.195Z,78.22
2023-01-04T11:45:23.988Z,82.35
2023-01-04T11:47:54.665Z,74.38
2023-01-04T11:50:40.031Z,77.22
2023-01-04T11:53:25.124Z,82.47
2023-01-04T11:55:53.173Z,80.32
2023-01-04T11:58:21.316Z,79.20
2023-01-04T12:00:52.280Z,78.32
2023-01-04T12:03:25.294Z,81.25
2023-01-04T12:05:53.443Z,74.45
2023-01-04T12:08:29.940Z,78.70
2023-01-04T12:10:58.136Z,81.15
2023-01-04T12:13:26.280Z,78.43
2023-01-04T12:16:03.232Z,74.43
2023-01-04T12:18:36.592Z,75.75
2023-01-04T12:21:04.896Z,76.38
2023-01-04T12:23:34.008Z,80.60
2023-01-04T12:26:02.083Z,84.38
2023-01-04T12:28:31.808Z,97.85
2023-01-04T12:31:30.504Z,82.72
2023-01-04T12:34:01.639Z,87.65
2023-01-04T12:36:57.394Z,80.72
2023-01-04T12:39:47.635Z,84.47
2023-01-04T12:42:22.269Z,80.57
2023-01-04T12:45:24.260Z,88.70
2023-01-04T12:48:11.403Z,86.65
2023-01-04T12:51:32.712Z,79.72
2023-01-04T12:54:03.919Z,76.82
2023-01-04T12:57:09.284Z,75.95
2023-01-04T12:59:37.869Z,77.82
2023-01-04T13:02:15.927Z,77.43
2023-01-04T13:04:44.517Z,75.25
2023-01-04T13:07:16.635Z,73.78
2023-01-04T13:09:50.931Z,75.07
2023-01-04T13:12:54.198Z,74.50
2023-01-04T13:15:24.979Z,72.70
2023-01-04T13:17:53.336Z,68.70
2023-01-04T13:20:22.732Z,68.75
2023-01-04T13:22:53.275Z,67.97
2023-01-04T13:25:23.544Z,66.63
2023-01-04T13:27:59.414Z,68.93
2023-01-04T13:30:35.484Z,65.45
2023-01-04T13:33:27.853Z,65.65
2023-01-04T13:36:04.814Z,63.28
2023-01-04T13:38:33.875Z,61.83
2023-01-04T13:41:03.665Z,61.10
2023-01-04T13:43:43.872Z,63.92
2023-01-04T13:46:15.518Z,68.30
2023-01-04T13:48:44.657Z,60.42
2023-01-04T13:51:17.745Z,63.90
2023-01-04T13:53:53.800Z,63.08
2023-01-04T13:56:24.849Z,65.90
2023-01-04T13:58:53.115Z,63.35
2023-01-04T14:01:22.730Z,63.83
2023-01-04T14:03:51.968Z,66.47
2023-01-04T14:06:25.303Z,66.93
2023-01-04T14:09:05.114Z,64.07
2023-01-04T14:11:52.734Z,63.67
2023-01-04T14:14:36.097Z,63.55
2023-01-04T14:17:16.520Z,64.00
2023-01-04T14:19:49.962Z,63.88
2023-01-04T14:22:30.308Z,62.63
2023-01-04T14:25:14.496Z,63.58
2023-01-04T14:27:44.127Z,61.08
2023-01-04T14:30:25.015Z,64.55
2023-01-04T14:32:56.898Z,59.72
2023-01-04T14:35:25.350Z,60.05
2023-01-04T14:37:53.427Z,61.67
2023-01-04T14:40:25.130Z,64.85
2023-01-04T14:42:54.774Z,68.63
2023-01-04T14:45:23.037Z,68.20
2023-01-04T14:47:51.302Z,71.75
2023-01-04T14:50:19.651Z,68.28
2023-01-04T14:52:51.846Z,66.75
2023-01-04T14:55:20.202Z,66.93
2023-01-04T14:57:48.551Z,63.95
2023-01-04T15:00:19.723Z,63.40
2023-01-04T15:02:51.119Z,61.38
2023-01-04T15:05:20.802Z,63.22
2023-01-04T15:07:49.448Z,59.42
2023-01-04T15:10:21.166Z,58.92
2023-01-04T15:12:49.416Z,63.53
2023-01-04T15:15:19.486Z,60.35
2023-01-04T15:17:47.807Z,60.97
2023-01-04T15:20:16.332Z,57.40
2023-01-04T15:22:44.591Z,57.92
2023-01-04T15:25:12.917Z,55.63
2023-01-04T15:27:42.840Z,54.30
2023-01-04T15:30:12.243Z,57.90
2023-01-04T15:32:42.108Z,63.20
2023-01-04T15:35:10.821Z,60.45
2023-01-04T15:37:39.010Z,63.63
2023-01-04T15:40:08.141Z,60.05
2023-01-04T15:42:53.849Z,68.35
2023-01-04T15:45:23.904Z,61.85
2023-01-04T15:47:53.540Z,62.70
2023-01-04T15:50:21.813Z,65.70
2023-01-04T15:52:49.912Z,68.38
2023-01-04T15:55:18.472Z,71.20
2023-01-04T15:57:46.639Z,67.78
2023-01-04T16:00:15.808Z,67.70
2023-01-04T16:02:44.100Z,59.30
2023-01-04T16:05:13.816Z,60.05
2023-01-04T16:07:42.092Z,65.35
2023-01-04T16:10:10.400Z,60.13
2023-01-04T16:12:45.946Z,58.00
2023-01-04T16:15:16.603Z,64.25
2023-01-04T16:17:45.212Z,66.60
2023-01-04T16:20:15.629Z,79.22
2023-01-04T16:22:43.928Z,86.32
2023-01-04T16:25:12.764Z,77.80
2023-01-04T16:27:41.347Z,75.93
2023-01-04T16:30:12.005Z,81.82
2023-01-04T16:32:42.330Z,82.60
2023-01-04T16:35:11.102Z,85.18
2023-01-04T16:37:43.072Z,83.07
2023-01-04T16:40:12.372Z,82.07
2023-01-04T16:42:40.517Z,84.13
2023-01-04T16:45:09.774Z,83.25
2023-01-04T16:47:42.129Z,99.97
2023-01-04T16:50:10.918Z,97.03
2023-01-04T16:52:40.760Z,87.22
2023-01-04T16:55:11.045Z,92.32
2023-01-04T16:57:39.476Z,91.57
2023-01-04T17:00:09.055Z,91.38
2023-01-04T17:02:37.528Z,91.45
2023-01-04T17:05:06.545Z,89.20
2023-01-04T17:07:34.845Z,92.55
2023-01-04T17:10:05.929Z,94.13
2023-01-04T17:12:49.755Z,88.63
2023-01-04T17:18:07.296Z,89.45
2023-01-04T17:20:35.462Z,100.68
2023-01-04T17:23:03.662Z,90.40
2023-01-04T17:25:33.463Z,95.50
2023-01-04T17:28:01.818Z,90.10
2023-01-04T17:30:30.048Z,90.47
2023-01-04T17:32:58.314Z,90.47
2023-01-04T17:35:26.526Z,90.82
2023-01-04T17:37:54.995Z,91.13
2023-01-04T17:40:23.804Z,94.55
2023-01-04T17:42:53.906Z,96.95
2023-01-04T17:45:22.255Z,96.03
2023-01-04T17:47:51.148Z,98.72
2023-01-04T17:50:19.651Z,93.97
2023-01-04T17:52:48.281Z,96.97
2023-01-04T17:55:16.450Z,95.13
2023-01-04T17:57:44.874Z,98.10
2023-01-04T18:00:15.887Z,96.95
2023-01-04T18:02:44.207Z,96.90
2023-01-04T18:05:12.710Z,92.60
2023-01-04T18:07:40.924Z,92.82
2023-01-04T18:10:20.610Z,88.97
2023-01-04T18:12:49.514Z,89.95
2023-01-04T18:15:19.264Z,93.18
2023-01-04T18:17:47.420Z,91.78
2023-01-04T18:20:24.730Z,91.13
2023-01-04T18:22:53.408Z,91.45
2023-01-04T18:25:21.522Z,94.13
2023-01-04T18:27:49.851Z,86.45
2023-01-04T18:30:19.683Z,85.00
2023-01-04T18:32:47.999Z,84.18
2023-01-04T18:35:16.376Z,82.32
2023-01-04T18:37:45.206Z,82.72
2023-01-04T18:40:13.947Z,82.18
2023-01-04T18:42:42.161Z,84.72
2023-01-04T18:45:10.975Z,80.53
2023-01-04T18:47:40.990Z,83.97
2023-01-04T18:50:10.153Z,76.03
2023-01-04T18:52:38.358Z,77.78
2023-01-04T18:55:07.183Z,76.63
2023-01-04T18:57:36.329Z,77.30
2023-01-04T19:00:05.633Z,72.35
2023-01-04T19:02:33.965Z,85.47
2023-01-04T19:05:03.656Z,97.07
2023-01-04T19:07:31.850Z,99.00
2023-01-04T19:10:00.045Z,108.82
2023-01-04T19:12:28.097Z,108.93
2023-01-04T19:14:56.270Z,101.63
2023-01-04T19:17:26.068Z,101.55
2023-01-04T19:19:54.655Z,100.32
2023-01-04T19:22:24.602Z,104.22
2023-01-04T19:24:52.851Z,105.10
2023-01-04T19:27:21.142Z,97.68
2023-01-04T19:29:49.371Z,97.20
2023-01-04T19:32:21.179Z,97.45
2023-01-04T19:34:49.513Z,96.70
2023-01-04T19:37:17.800Z,97.47
2023-01-04T19:39:47.419Z,92.28
2023-01-04T19:42:15.651Z,93.07
2023-01-04T19:44:43.796Z,97.80
2023-01-04T19:47:12.039Z,90.90
2023-01-04T19:49:40.149Z,96.50
2023-01-04T19:52:08.437Z,93.20
2023-01-04T19:54:37.688Z,96.07
2023-01-04T19:57:07.652Z,96.18
2023-01-04T19:59:35.961Z,100.65
2023-01-04T20:02:04.265Z,98.47
2023-01-04T20:04:33.856Z,95.70
2023-01-04T20:07:02.083Z,99.75
2023-01-04T20:09:32.145Z,97.63
2023-01-04T20:12:00.488Z,102.47
2023-01-04T20:14:30.837Z,96.93
2023-01-04T20:16:59.148Z,105.00
2023-01-04T20:19:27.471Z,100.18
2023-01-04T20:21:55.735Z,96.57
2023-01-04T20:24:23.923Z,102.20
2023-01-04T20:26:52.250Z,101.45
2023-01-04T20:29:20.412Z,106.40
2023-01-04T20:31:50.095Z,103.80
2023-01-04T20:34:18.282Z,103.13
2023-01-04T20:36:46.584Z,99.70
2023-01-04T20:39:14.783Z,99.00
2023-01-04T20:42:03.600Z,98.30
2023-01-04T20:44:30.855Z,89.18
2023-01-04T20:47:00.570Z,81.70
2023-01-04T20:49:28.889Z,85.22
2023-01-04T20:51:57.107Z,85.18
2023-01-04T20:54:25.462Z,82.22
2023-01-04T20:56:54.976Z,86.95
2023-01-04T20:59:23.334Z,85.53
2023-01-04T21:01:51.643Z,85.18
2023-01-04T21:04:21.351Z,87.00
2023-01-04T21:06:49.512Z,85.68
2023-01-04T21:09:17.757Z,84.15
2023-01-04T21:11:46.076Z,81.57
2023-01-04T21:14:14.392Z,79.90
2023-01-04T21:16:42.619Z,82.82
2023-01-04T21:19:10.972Z,83.05
2023-01-04T21:21:40.584Z,83.35
2023-01-04T21:24:09.325Z,83.05
2023-01-04T21:26:37.587Z,83.47
2023-01-04T21:29:05.889Z,81.72
2023-01-04T21:31:34.221Z,80.80
2023-01-04T21:34:05.471Z,80.95
2023-01-04T21:36:36.135Z,80.75
2023-01-04T21:39:05.793Z,79.88
2023-01-04T21:41:34.057Z,78.97
2023-01-04T21:44:02.673Z,80.97
2023-01-04T21:46:30.983Z,76.78
2023-01-04T21:49:01.705Z,75.53
2023-01-04T21:51:30.158Z,84.00
2023-01-04T21:53:58.903Z,83.72
2023-01-04T21:56:28.760Z,80.35
2023-01-04T21:58:56.828Z,79.18
2023-01-04T22:01:30.920Z,73.43
2023-01-04T22:04:02.723Z,74.60
2023-01-04T22:06:33.218Z,76.80
2023-01-04T22:09:01.518Z,76.68
2023-01-04T22:11:31.120Z,74.53
2023-01-04T22:13:59.309Z,73.43
2023-01-04T22:16:27.584Z,70.50
2023-01-04T22:18:55.920Z,71.78
2023-01-04T22:21:24.756Z,74.00
2023-01-04T22:23:53.027Z,71.70
2023-01-04T22:26:21.231Z,74.72
2023-01-04T22:28:50.921Z,71.07
2023-01-04T22:31:19.510Z,70.78
2023-01-04T22:33:47.694Z,69.93
2023-01-04T22:36:22.233Z,69.38
2023-01-04T22:38:51.479Z,68.65
2023-01-04T22:41:21.541Z,69.78
2023-01-04T22:43:55.527Z,69.15
2023-01-04T22:46:24.266Z,70.85
2023-01-04T22:48:52.552Z,67.20
2023-01-04T22:51:21.121Z,65.40
2023-01-04T22:53:49.396Z,69.45
2023-01-04T22:56:20.089Z,66.40
2023-01-04T22:58:54.123Z,67.53
2023-01-04T23:01:22.900Z,64.93
2023-01-04T23:03:53.097Z,62.63
2023-01-04T23:06:21.778Z,63.15
2023-01-04T23:08:50.059Z,62.13
2023-01-04T23:11:18.956Z,63.22
2023-01-04T23:13:47.142Z,62.88
2023-01-04T23:16:17.031Z,64.95
2023-01-04T23:18:45.383Z,64.57
2023-01-04T23:21:13.577Z,60.28
2023-01-04T23:23:41.794Z,59.63
2023-01-04T23:26:11.975Z,58.50
2023-01-04T23:28:40.217Z,59.72
2023-01-04T23:31:10.028Z,60.33
2023-01-04T23:33:39.585Z,68.60
2023-01-04T23:36:09.188Z,56.58
2023-01-04T23:38:37.422Z,57.65
2023-01-04T23:41:05.920Z,57.15
2023-01-04T23:43:35.703Z,58.13
2023-01-04T23:46:07.230Z,55.10
2023-01-04T23:48:35.516Z,54.97
2023-01-04T23:51:05.243Z,59.47
2023-01-04T23:53:33.476Z,53.92
2023-01-04T23:56:02.848Z,52.90
2023-01-04T23:58:31.563Z,55.10
